Terminal Aerodrome Forecast
Issued by NWS

Home | Current Version | Previous Version | Text Only | Print | Product List | Glossary On
Versions: 1 2 3 4 5 6 7 8 9 10 11 12 13 14 15 16 17 18 19 20 21 22 23 24 25 26 27 28
000
FTAK31 PANC 200537
TAFAEN
TAF
PAEN 200537Z 2006/2106 02006KT P6SM SCT022 BKN120
      TEMPO 2006/2009 BKN022
     FM201200 02014KT P6SM FEW030 OVC060
     FM202200 02008KT 3SM -SN BKN010 OVC025
     FM210300 35005KT 6SM -SN SCT010 OVC025=

USA.gov is the U.S. government's official web portal to all federal, state and local government web resources and services.